sensor_id;sensor_type;location;lat;lon;timestamp;P1;durP1;ratioP1;P2;durP2;ratioP2
21657;SDS011;10990;48.174;9.782;2022-11-15T00:01:11;7.10;;;3.93;;
21657;SDS011;10990;48.174;9.782;2022-11-15T00:04:00;6.63;;;4.17;;
21657;SDS011;10990;48.174;9.782;2022-11-15T00:06:46;6.20;;;3.90;;
21657;SDS011;10990;48.174;9.782;2022-11-15T00:09:31;5.70;;;4.10;;
21657;SDS011;10990;48.174;9.782;2022-11-15T00:12:17;5.43;;;4.00;;
21657;SDS011;10990;48.174;9.782;2022-11-15T00:15:02;5.43;;;3.50;;
21657;SDS011;10990;48.174;9.782;2022-11-15T00:17:50;5.67;;;3.00;;
21657;SDS011;10990;48.174;9.782;2022-11-15T00:20:35;5.17;;;3.03;;
21657;SDS011;10990;48.174;9.782;2022-11-15T00:23:20;4.47;;;2.70;;
21657;SDS011;10990;48.174;9.782;2022-11-15T00:26:06;4.03;;;2.50;;
21657;SDS011;10990;48.174;9.782;2022-11-15T00:28:52;3.87;;;2.70;;
21657;SDS011;10990;48.174;9.782;2022-11-15T00:31:38;5.30;;;3.23;;
21657;SDS011;10990;48.174;9.782;2022-11-15T00:34:24;8.40;;;4.57;;
21657;SDS011;10990;48.174;9.782;2022-11-15T00:37:10;6.90;;;4.17;;
21657;SDS011;10990;48.174;9.782;2022-11-15T00:39:55;7.30;;;3.70;;
21657;SDS011;10990;48.174;9.782;2022-11-15T00:42:40;4.77;;;2.90;;
21657;SDS011;10990;48.174;9.782;2022-11-15T00:45:26;3.93;;;2.30;;
21657;SDS011;10990;48.174;9.782;2022-11-15T00:48:11;5.43;;;2.63;;
21657;SDS011;10990;48.174;9.782;2022-11-15T00:50:58;4.77;;;2.50;;
21657;SDS011;10990;48.174;9.782;2022-11-15T00:53:43;5.00;;;2.73;;
21657;SDS011;10990;48.174;9.782;2022-11-15T00:56:28;3.67;;;2.40;;
21657;SDS011;10990;48.174;9.782;2022-11-15T00:59:14;4.97;;;2.70;;
21657;SDS011;10990;48.174;9.782;2022-11-15T01:01:59;4.13;;;2.80;;
21657;SDS011;10990;48.174;9.782;2022-11-15T01:04:45;3.53;;;2.57;;
21657;SDS011;10990;48.174;9.782;2022-11-15T01:07:31;4.23;;;2.93;;
21657;SDS011;10990;48.174;9.782;2022-11-15T01:10:16;6.57;;;3.00;;
21657;SDS011;10990;48.174;9.782;2022-11-15T01:13:02;5.97;;;3.27;;
21657;SDS011;10990;48.174;9.782;2022-11-15T01:15:47;5.33;;;3.30;;
21657;SDS011;10990;48.174;9.782;2022-11-15T01:18:33;6.00;;;3.70;;
21657;SDS011;10990;48.174;9.782;2022-11-15T01:21:19;7.17;;;3.17;;
21657;SDS011;10990;48.174;9.782;2022-11-15T01:24:06;4.43;;;3.30;;
21657;SDS011;10990;48.174;9.782;2022-11-15T01:26:53;5.13;;;3.80;;
21657;SDS011;10990;48.174;9.782;2022-11-15T01:29:38;6.27;;;4.10;;
21657;SDS011;10990;48.174;9.782;2022-11-15T01:32:23;5.30;;;3.70;;
21657;SDS011;10990;48.174;9.782;2022-11-15T01:35:09;7.57;;;3.40;;
21657;SDS011;10990;48.174;9.782;2022-11-15T01:37:54;5.53;;;3.57;;
21657;SDS011;10990;48.174;9.782;2022-11-15T01:40:41;5.97;;;3.00;;
21657;SDS011;10990;48.174;9.782;2022-11-15T01:43:27;5.50;;;2.97;;
21657;SDS011;10990;48.174;9.782;2022-11-15T01:46:19;4.70;;;3.03;;
21657;SDS011;10990;48.174;9.782;2022-11-15T01:49:11;7.03;;;2.90;;
21657;SDS011;10990;48.174;9.782;2022-11-15T01:51:59;3.77;;;2.80;;
21657;SDS011;10990;48.174;9.782;2022-11-15T01:54:47;4.53;;;2.93;;
21657;SDS011;10990;48.174;9.782;2022-11-15T01:57:37;3.37;;;2.53;;
21657;SDS011;10990;48.174;9.782;2022-11-15T02:00:22;4.93;;;2.60;;
21657;SDS011;10990;48.174;9.782;2022-11-15T02:03:08;4.23;;;2.60;;
21657;SDS011;10990;48.174;9.782;2022-11-15T02:05:54;3.00;;;2.70;;
21657;SDS011;10990;48.174;9.782;2022-11-15T02:08:39;4.10;;;2.87;;
21657;SDS011;10990;48.174;9.782;2022-11-15T02:11:24;4.20;;;2.90;;
21657;SDS011;10990;48.174;9.782;2022-11-15T02:14:11;3.73;;;2.60;;
21657;SDS011;10990;48.174;9.782;2022-11-15T02:16:58;5.43;;;3.00;;
21657;SDS011;10990;48.174;9.782;2022-11-15T02:20:00;6.27;;;3.17;;
21657;SDS011;10990;48.174;9.782;2022-11-15T02:23:13;4.67;;;3.23;;
21657;SDS011;10990;48.174;9.782;2022-11-15T02:29:46;4.10;;;3.00;;
21657;SDS011;10990;48.174;9.782;2022-11-15T02:32:47;6.17;;;2.90;;
21657;SDS011;10990;48.174;9.782;2022-11-15T02:35:37;4.07;;;2.73;;
21657;SDS011;10990;48.174;9.782;2022-11-15T02:38:32;4.30;;;2.83;;
21657;SDS011;10990;48.174;9.782;2022-11-15T02:41:26;8.47;;;2.97;;
21657;SDS011;10990;48.174;9.782;2022-11-15T02:44:21;4.13;;;2.70;;
21657;SDS011;10990;48.174;9.782;2022-11-15T02:47:11;4.93;;;2.70;;
21657;SDS011;10990;48.174;9.782;2022-11-15T02:50:03;3.97;;;2.80;;
21657;SDS011;10990;48.174;9.782;2022-11-15T02:52:52;3.70;;;2.77;;
21657;SDS011;10990;48.174;9.782;2022-11-15T02:55:38;5.77;;;3.00;;
21657;SDS011;10990;48.174;9.782;2022-11-15T02:58:42;4.63;;;3.00;;
21657;SDS011;10990;48.174;9.782;2022-11-15T03:01:44;3.87;;;2.73;;
21657;SDS011;10990;48.174;9.782;2022-11-15T03:04:42;5.57;;;2.77;;
21657;SDS011;10990;48.174;9.782;2022-11-15T03:07:32;3.07;;;2.30;;
21657;SDS011;10990;48.174;9.782;2022-11-15T03:10:24;4.03;;;2.50;;
21657;SDS011;10990;48.174;9.782;2022-11-15T03:13:19;5.70;;;3.20;;
21657;SDS011;10990;48.174;9.782;2022-11-15T03:16:11;4.27;;;3.00;;
21657;SDS011;10990;48.174;9.782;2022-11-15T03:19:04;4.30;;;2.83;;
21657;SDS011;10990;48.174;9.782;2022-11-15T03:21:54;5.47;;;3.00;;
21657;SDS011;10990;48.174;9.782;2022-11-15T03:24:43;3.70;;;2.70;;
21657;SDS011;10990;48.174;9.782;2022-11-15T03:27:33;3.83;;;2.90;;
21657;SDS011;10990;48.174;9.782;2022-11-15T03:30:23;4.60;;;2.93;;
21657;SDS011;10990;48.174;9.782;2022-11-15T03:33:08;5.70;;;3.03;;
21657;SDS011;10990;48.174;9.782;2022-11-15T03:35:55;5.13;;;3.10;;
21657;SDS011;10990;48.174;9.782;2022-11-15T03:38:40;3.47;;;2.70;;
21657;SDS011;10990;48.174;9.782;2022-11-15T03:41:30;5.30;;;2.80;;
21657;SDS011;10990;48.174;9.782;2022-11-15T03:44:25;3.50;;;2.50;;
21657;SDS011;10990;48.174;9.782;2022-11-15T03:47:20;5.00;;;3.23;;
21657;SDS011;10990;48.174;9.782;2022-11-15T03:50:10;5.97;;;3.20;;
21657;SDS011;10990;48.174;9.782;2022-11-15T03:52:58;4.90;;;3.47;;
21657;SDS011;10990;48.174;9.782;2022-11-15T03:55:43;5.00;;;3.40;;
21657;SDS011;10990;48.174;9.782;2022-11-15T03:58:30;4.90;;;3.27;;
21657;SDS011;10990;48.174;9.782;2022-11-15T04:01:16;6.10;;;3.47;;
21657;SDS011;10990;48.174;9.782;2022-11-15T04:04:01;6.40;;;3.87;;
21657;SDS011;10990;48.174;9.782;2022-11-15T04:06:46;6.23;;;4.10;;
21657;SDS011;10990;48.174;9.782;2022-11-15T04:09:32;10.97;;;4.47;;
21657;SDS011;10990;48.174;9.782;2022-11-15T04:12:38;9.27;;;5.13;;
21657;SDS011;10990;48.174;9.782;2022-11-15T04:15:28;9.30;;;4.50;;
21657;SDS011;10990;48.174;9.782;2022-11-15T04:18:14;10.10;;;4.83;;
21657;SDS011;10990;48.174;9.782;2022-11-15T04:20:59;11.93;;;6.00;;
21657;SDS011;10990;48.174;9.782;2022-11-15T04:24:02;10.37;;;5.67;;
21657;SDS011;10990;48.174;9.782;2022-11-15T04:26:57;12.17;;;5.90;;
21657;SDS011;10990;48.174;9.782;2022-11-15T04:29:42;10.37;;;5.30;;
21657;SDS011;10990;48.174;9.782;2022-11-15T04:32:29;12.83;;;5.43;;
21657;SDS011;10990;48.174;9.782;2022-11-15T04:35:14;11.03;;;5.43;;
21657;SDS011;10990;48.174;9.782;2022-11-15T04:38:00;8.33;;;5.20;;
21657;SDS011;10990;48.174;9.782;2022-11-15T04:40:46;9.60;;;5.17;;
21657;SDS011;10990;48.174;9.782;2022-11-15T04:43:32;9.77;;;5.10;;
21657;SDS011;10990;48.174;9.782;2022-11-15T04:46:17;10.37;;;5.37;;
21657;SDS011;10990;48.174;9.782;2022-11-15T04:49:04;9.30;;;5.20;;
21657;SDS011;10990;48.174;9.782;2022-11-15T04:51:49;9.43;;;5.37;;
21657;SDS011;10990;48.174;9.782;2022-11-15T04:54:35;8.07;;;4.83;;
21657;SDS011;10990;48.174;9.782;2022-11-15T04:57:20;8.73;;;4.70;;
21657;SDS011;10990;48.174;9.782;2022-11-15T05:00:07;9.47;;;4.93;;
21657;SDS011;10990;48.174;9.782;2022-11-15T05:02:54;8.20;;;5.10;;
21657;SDS011;10990;48.174;9.782;2022-11-15T05:05:59;7.93;;;5.00;;
21657;SDS011;10990;48.174;9.782;2022-11-15T05:08:44;10.03;;;5.20;;
21657;SDS011;10990;48.174;9.782;2022-11-15T05:11:29;8.73;;;5.03;;
21657;SDS011;10990;48.174;9.782;2022-11-15T05:14:15;10.53;;;5.60;;
21657;SDS011;10990;48.174;9.782;2022-11-15T05:17:00;10.63;;;5.47;;
21657;SDS011;10990;48.174;9.782;2022-11-15T05:19:45;13.67;;;5.37;;
21657;SDS011;10990;48.174;9.782;2022-11-15T05:22:32;9.67;;;6.10;;
21657;SDS011;10990;48.174;9.782;2022-11-15T05:25:17;10.27;;;5.53;;
21657;SDS011;10990;48.174;9.782;2022-11-15T05:28:03;10.77;;;5.50;;
21657;SDS011;10990;48.174;9.782;2022-11-15T05:30:48;10.57;;;6.03;;
21657;SDS011;10990;48.174;9.782;2022-11-15T05:33:34;11.57;;;5.57;;
21657;SDS011;10990;48.174;9.782;2022-11-15T05:36:21;8.73;;;5.20;;
21657;SDS011;10990;48.174;9.782;2022-11-15T05:39:15;11.83;;;5.60;;
21657;SDS011;10990;48.174;9.782;2022-11-15T05:42:01;15.17;;;6.47;;
21657;SDS011;10990;48.174;9.782;2022-11-15T05:44:50;10.93;;;5.93;;
21657;SDS011;10990;48.174;9.782;2022-11-15T05:47:36;11.67;;;5.70;;
21657;SDS011;10990;48.174;9.782;2022-11-15T05:50:24;11.83;;;5.70;;
21657;SDS011;10990;48.174;9.782;2022-11-15T05:53:09;9.63;;;5.93;;
21657;SDS011;10990;48.174;9.782;2022-11-15T05:55:58;11.57;;;5.70;;
21657;SDS011;10990;48.174;9.782;2022-11-15T05:58:44;10.60;;;5.67;;
21657;SDS011;10990;48.174;9.782;2022-11-15T06:01:30;10.03;;;5.33;;
21657;SDS011;10990;48.174;9.782;2022-11-15T06:04:15;9.97;;;5.30;;
21657;SDS011;10990;48.174;9.782;2022-11-15T06:07:01;9.57;;;5.87;;
21657;SDS011;10990;48.174;9.782;2022-11-15T06:09:46;10.00;;;5.40;;
21657;SDS011;10990;48.174;9.782;2022-11-15T06:12:33;9.40;;;5.93;;
21657;SDS011;10990;48.174;9.782;2022-11-15T06:15:19;9.30;;;5.50;;
21657;SDS011;10990;48.174;9.782;2022-11-15T06:18:05;11.80;;;5.70;;
21657;SDS011;10990;48.174;9.782;2022-11-15T06:20:51;8.50;;;5.10;;
21657;SDS011;10990;48.174;9.782;2022-11-15T06:23:36;10.83;;;5.77;;
21657;SDS011;10990;48.174;9.782;2022-11-15T06:26:22;9.27;;;5.40;;
21657;SDS011;10990;48.174;9.782;2022-11-15T06:29:09;14.00;;;6.27;;
21657;SDS011;10990;48.174;9.782;2022-11-15T06:31:54;8.20;;;5.37;;
21657;SDS011;10990;48.174;9.782;2022-11-15T06:34:39;11.80;;;5.97;;
21657;SDS011;10990;48.174;9.782;2022-11-15T06:37:25;13.47;;;6.50;;
21657;SDS011;10990;48.174;9.782;2022-11-15T06:40:10;14.80;;;6.10;;
21657;SDS011;10990;48.174;9.782;2022-11-15T06:42:59;14.83;;;5.87;;
21657;SDS011;10990;48.174;9.782;2022-11-15T06:45:46;10.77;;;5.30;;
21657;SDS011;10990;48.174;9.782;2022-11-15T06:48:32;10.67;;;5.13;;
21657;SDS011;10990;48.174;9.782;2022-11-15T06:51:18;10.00;;;5.40;;
21657;SDS011;10990;48.174;9.782;2022-11-15T06:54:04;18.87;;;6.20;;
21657;SDS011;10990;48.174;9.782;2022-11-15T06:56:50;27.23;;;5.97;;
21657;SDS011;10990;48.174;9.782;2022-11-15T06:59:35;23.10;;;5.33;;
21657;SDS011;10990;48.174;9.782;2022-11-15T07:02:22;12.80;;;5.63;;
21657;SDS011;10990;48.174;9.782;2022-11-15T07:05:07;14.97;;;5.57;;
21657;SDS011;10990;48.174;9.782;2022-11-15T07:07:53;11.30;;;5.43;;
21657;SDS011;10990;48.174;9.782;2022-11-15T07:10:39;15.33;;;6.27;;
21657;SDS011;10990;48.174;9.782;2022-11-15T07:13:24;11.70;;;6.80;;
21657;SDS011;10990;48.174;9.782;2022-11-15T07:16:10;11.90;;;6.17;;
21657;SDS011;10990;48.174;9.782;2022-11-15T07:18:58;10.93;;;6.50;;
21657;SDS011;10990;48.174;9.782;2022-11-15T07:21:43;13.60;;;6.90;;
21657;SDS011;10990;48.174;9.782;2022-11-15T07:24:29;33.63;;;7.80;;
21657;SDS011;10990;48.174;9.782;2022-11-15T07:27:14;16.03;;;6.63;;
21657;SDS011;10990;48.174;9.782;2022-11-15T07:29:59;37.83;;;7.83;;
21657;SDS011;10990;48.174;9.782;2022-11-15T07:32:45;21.30;;;7.10;;
21657;SDS011;10990;48.174;9.782;2022-11-15T07:35:32;23.73;;;7.90;;
21657;SDS011;10990;48.174;9.782;2022-11-15T07:38:17;21.03;;;8.17;;
21657;SDS011;10990;48.174;9.782;2022-11-15T07:41:04;33.50;;;7.67;;
21657;SDS011;10990;48.174;9.782;2022-11-15T07:43:50;30.60;;;7.67;;
21657;SDS011;10990;48.174;9.782;2022-11-15T07:46:36;27.57;;;6.67;;
21657;SDS011;10990;48.174;9.782;2022-11-15T07:49:21;40.90;;;6.77;;
21657;SDS011;10990;48.174;9.782;2022-11-15T07:52:08;23.83;;;5.83;;
21657;SDS011;10990;48.174;9.782;2022-11-15T07:54:53;19.40;;;5.33;;
21657;SDS011;10990;48.174;9.782;2022-11-15T07:57:39;21.97;;;7.43;;
21657;SDS011;10990;48.174;9.782;2022-11-15T08:00:24;44.60;;;6.53;;
21657;SDS011;10990;48.174;9.782;2022-11-15T08:03:10;13.87;;;5.30;;
21657;SDS011;10990;48.174;9.782;2022-11-15T08:05:56;46.53;;;7.10;;
21657;SDS011;10990;48.174;9.782;2022-11-15T08:08:43;42.33;;;6.90;;
21657;SDS011;10990;48.174;9.782;2022-11-15T08:11:29;24.83;;;6.37;;
21657;SDS011;10990;48.174;9.782;2022-11-15T08:14:14;31.03;;;7.13;;
21657;SDS011;10990;48.174;9.782;2022-11-15T08:16:59;20.37;;;6.83;;
21657;SDS011;10990;48.174;9.782;2022-11-15T08:19:45;17.60;;;6.17;;
21657;SDS011;10990;48.174;9.782;2022-11-15T08:22:30;43.50;;;8.37;;
21657;SDS011;10990;48.174;9.782;2022-11-15T08:25:17;10.60;;;6.50;;
21657;SDS011;10990;48.174;9.782;2022-11-15T08:28:03;49.00;;;7.50;;
21657;SDS011;10990;48.174;9.782;2022-11-15T08:30:52;23.73;;;6.97;;
21657;SDS011;10990;48.174;9.782;2022-11-15T08:33:37;12.27;;;6.07;;
21657;SDS011;10990;48.174;9.782;2022-11-15T08:36:23;12.77;;;5.90;;
21657;SDS011;10990;48.174;9.782;2022-11-15T08:39:09;15.83;;;5.57;;
21657;SDS011;10990;48.174;9.782;2022-11-15T08:41:57;15.63;;;5.63;;
21657;SDS011;10990;48.174;9.782;2022-11-15T08:44:43;11.90;;;5.33;;
21657;SDS011;10990;48.174;9.782;2022-11-15T08:47:28;9.67;;;5.37;;
21657;SDS011;10990;48.174;9.782;2022-11-15T08:50:14;13.67;;;5.47;;
21657;SDS011;10990;48.174;9.782;2022-11-15T08:53:03;8.90;;;5.50;;
21657;SDS011;10990;48.174;9.782;2022-11-15T08:55:50;8.50;;;5.43;;
21657;SDS011;10990;48.174;9.782;2022-11-15T08:58:36;8.50;;;6.00;;
21657;SDS011;10990;48.174;9.782;2022-11-15T09:01:22;7.70;;;5.30;;
21657;SDS011;10990;48.174;9.782;2022-11-15T09:04:08;11.33;;;6.17;;
21657;SDS011;10990;48.174;9.782;2022-11-15T09:06:53;6.87;;;5.37;;
21657;SDS011;10990;48.174;9.782;2022-11-15T09:09:39;9.03;;;5.83;;
21657;SDS011;10990;48.174;9.782;2022-11-15T09:12:24;10.40;;;6.60;;
21657;SDS011;10990;48.174;9.782;2022-11-15T09:15:12;7.83;;;5.93;;
21657;SDS011;10990;48.174;9.782;2022-11-15T09:17:57;9.07;;;6.40;;
21657;SDS011;10990;48.174;9.782;2022-11-15T09:20:43;9.07;;;6.17;;
21657;SDS011;10990;48.174;9.782;2022-11-15T09:23:28;8.83;;;6.43;;
21657;SDS011;10990;48.174;9.782;2022-11-15T09:26:13;9.47;;;6.40;;
21657;SDS011;10990;48.174;9.782;2022-11-15T09:28:59;8.20;;;5.83;;
21657;SDS011;10990;48.174;9.782;2022-11-15T09:31:46;10.02;;;5.65;;
21657;SDS011;10990;48.174;9.782;2022-11-15T09:34:31;9.35;;;6.38;;
21657;SDS011;10990;48.174;9.782;2022-11-15T09:37:17;7.85;;;5.97;;
21657;SDS011;10990;48.174;9.782;2022-11-15T09:40:03;7.93;;;5.43;;
21657;SDS011;10990;48.174;9.782;2022-11-15T09:42:52;8.43;;;5.75;;
21657;SDS011;10990;48.174;9.782;2022-11-15T09:45:50;7.13;;;5.32;;
21657;SDS011;10990;48.174;9.782;2022-11-15T09:48:53;9.80;;;6.13;;
21657;SDS011;10990;48.174;9.782;2022-11-15T09:51:56;7.30;;;5.68;;
21657;SDS011;10990;48.174;9.782;2022-11-15T09:54:26;6.72;;;5.45;;
21657;SDS011;10990;48.174;9.782;2022-11-15T09:56:56;8.70;;;5.85;;
21657;SDS011;10990;48.174;9.782;2022-11-15T09:59:50;9.10;;;6.20;;
21657;SDS011;10990;48.174;9.782;2022-11-15T10:02:33;7.43;;;5.70;;
21657;SDS011;10990;48.174;9.782;2022-11-15T10:05:14;7.55;;;5.45;;
21657;SDS011;10990;48.174;9.782;2022-11-15T10:07:46;8.05;;;5.78;;
21657;SDS011;10990;48.174;9.782;2022-11-15T10:10:24;8.40;;;5.50;;
21657;SDS011;10990;48.174;9.782;2022-11-15T10:12:54;7.40;;;4.90;;
21657;SDS011;10990;48.174;9.782;2022-11-15T10:15:21;7.05;;;5.57;;
21657;SDS011;10990;48.174;9.782;2022-11-15T10:18:04;5.90;;;5.13;;
21657;SDS011;10990;48.174;9.782;2022-11-15T10:20:39;7.82;;;5.05;;
21657;SDS011;10990;48.174;9.782;2022-11-15T10:23:13;6.63;;;5.47;;
21657;SDS011;10990;48.174;9.782;2022-11-15T10:25:42;5.40;;;4.60;;
21657;SDS011;10990;48.174;9.782;2022-11-15T10:28:11;7.38;;;5.32;;
21657;SDS011;10990;48.174;9.782;2022-11-15T10:30:42;8.45;;;6.03;;
21657;SDS011;10990;48.174;9.782;2022-11-15T10:33:12;8.30;;;5.90;;
21657;SDS011;10990;48.174;9.782;2022-11-15T10:35:48;7.75;;;5.70;;
21657;SDS011;10990;48.174;9.782;2022-11-15T10:38:15;8.18;;;5.35;;
21657;SDS011;10990;48.174;9.782;2022-11-15T10:40:41;7.88;;;5.47;;
21657;SDS011;10990;48.174;9.782;2022-11-15T10:43:14;7.53;;;5.30;;
21657;SDS011;10990;48.174;9.782;2022-11-15T10:45:42;8.25;;;5.50;;
21657;SDS011;10990;48.174;9.782;2022-11-15T10:48:20;8.35;;;5.80;;
21657;SDS011;10990;48.174;9.782;2022-11-15T10:50:50;8.10;;;5.70;;
21657;SDS011;10990;48.174;9.782;2022-11-15T10:53:23;7.43;;;5.53;;
21657;SDS011;10990;48.174;9.782;2022-11-15T10:55:56;8.65;;;5.80;;
21657;SDS011;10990;48.174;9.782;2022-11-15T10:58:36;8.15;;;6.28;;
21657;SDS011;10990;48.174;9.782;2022-11-15T11:01:09;9.02;;;6.30;;
21657;SDS011;10990;48.174;9.782;2022-11-15T11:03:42;9.15;;;6.50;;
21657;SDS011;10990;48.174;9.782;2022-11-15T11:06:12;8.07;;;5.55;;
21657;SDS011;10990;48.174;9.782;2022-11-15T11:08:40;11.27;;;5.70;;
21657;SDS011;10990;48.174;9.782;2022-11-15T11:11:19;8.68;;;5.78;;
21657;SDS011;10990;48.174;9.782;2022-11-15T11:13:46;8.25;;;5.88;;
21657;SDS011;10990;48.174;9.782;2022-11-15T11:16:19;8.13;;;5.72;;
21657;SDS011;10990;48.174;9.782;2022-11-15T11:18:55;8.45;;;5.18;;
21657;SDS011;10990;48.174;9.782;2022-11-15T11:21:34;9.05;;;5.78;;
21657;SDS011;10990;48.174;9.782;2022-11-15T11:24:11;8.13;;;5.50;;
21657;SDS011;10990;48.174;9.782;2022-11-15T11:26:45;8.68;;;5.60;;
21657;SDS011;10990;48.174;9.782;2022-11-15T11:29:33;8.43;;;5.75;;
21657;SDS011;10990;48.174;9.782;2022-11-15T11:32:13;9.02;;;5.80;;
21657;SDS011;10990;48.174;9.782;2022-11-15T11:34:54;8.25;;;5.75;;
21657;SDS011;10990;48.174;9.782;2022-11-15T11:37:31;9.25;;;5.78;;
21657;SDS011;10990;48.174;9.782;2022-11-15T11:40:07;8.73;;;5.25;;
21657;SDS011;10990;48.174;9.782;2022-11-15T11:42:47;8.02;;;5.50;;
21657;SDS011;10990;48.174;9.782;2022-11-15T11:45:26;11.50;;;6.25;;
21657;SDS011;10990;48.174;9.782;2022-11-15T11:48:09;7.97;;;5.20;;
21657;SDS011;10990;48.174;9.782;2022-11-15T11:50:39;8.48;;;5.70;;
21657;SDS011;10990;48.174;9.782;2022-11-15T11:53:12;9.10;;;5.75;;
21657;SDS011;10990;48.174;9.782;2022-11-15T11:55:43;9.10;;;6.10;;
21657;SDS011;10990;48.174;9.782;2022-11-15T11:58:14;9.65;;;6.15;;
21657;SDS011;10990;48.174;9.782;2022-11-15T12:00:46;10.43;;;6.45;;
21657;SDS011;10990;48.174;9.782;2022-11-15T12:03:18;9.77;;;6.20;;
21657;SDS011;10990;48.174;9.782;2022-11-15T12:05:53;13.35;;;6.55;;
21657;SDS011;10990;48.174;9.782;2022-11-15T12:08:27;10.10;;;5.88;;
21657;SDS011;10990;48.174;9.782;2022-11-15T12:11:01;9.50;;;6.18;;
21657;SDS011;10990;48.174;9.782;2022-11-15T12:13:34;8.82;;;5.68;;
21657;SDS011;10990;48.174;9.782;2022-11-15T12:16:03;7.82;;;5.20;;
21657;SDS011;10990;48.174;9.782;2022-11-15T12:18:37;7.35;;;4.57;;
21657;SDS011;10990;48.174;9.782;2022-11-15T12:21:05;7.90;;;4.47;;
21657;SDS011;10990;48.174;9.782;2022-11-15T12:23:39;5.63;;;4.30;;
21657;SDS011;10990;48.174;9.782;2022-11-15T12:26:11;6.35;;;4.40;;
21657;SDS011;10990;48.174;9.782;2022-11-15T12:28:45;6.47;;;4.35;;
21657;SDS011;10990;48.174;9.782;2022-11-15T12:31:15;6.78;;;4.43;;
21657;SDS011;10990;48.174;9.782;2022-11-15T12:33:47;6.10;;;4.20;;
21657;SDS011;10990;48.174;9.782;2022-11-15T12:36:30;9.05;;;4.05;;
21657;SDS011;10990;48.174;9.782;2022-11-15T12:39:02;4.97;;;3.67;;
21657;SDS011;10990;48.174;9.782;2022-11-15T12:41:30;5.68;;;3.78;;
21657;SDS011;10990;48.174;9.782;2022-11-15T12:43:59;6.07;;;4.20;;
21657;SDS011;10990;48.174;9.782;2022-11-15T12:49:46;5.10;;;3.88;;
21657;SDS011;10990;48.174;9.782;2022-11-15T12:52:13;6.40;;;3.95;;
21657;SDS011;10990;48.174;9.782;2022-11-15T12:54:59;5.93;;;3.83;;
21657;SDS011;10990;48.174;9.782;2022-11-15T12:57:30;5.57;;;3.55;;
21657;SDS011;10990;48.174;9.782;2022-11-15T13:00:37;6.00;;;3.38;;
21657;SDS011;10990;48.174;9.782;2022-11-15T13:03:13;5.35;;;3.70;;
21657;SDS011;10990;48.174;9.782;2022-11-15T13:05:56;5.30;;;3.33;;
21657;SDS011;10990;48.174;9.782;2022-11-15T13:08:38;4.15;;;3.40;;
21657;SDS011;10990;48.174;9.782;2022-11-15T13:17:21;4.60;;;3.13;;
21657;SDS011;10990;48.174;9.782;2022-11-15T13:19:53;4.68;;;2.80;;
21657;SDS011;10990;48.174;9.782;2022-11-15T13:22:25;3.58;;;2.80;;
21657;SDS011;10990;48.174;9.782;2022-11-15T13:25:16;3.40;;;2.70;;
21657;SDS011;10990;48.174;9.782;2022-11-15T13:27:48;5.13;;;2.80;;
21657;SDS011;10990;48.174;9.782;2022-11-15T13:30:21;5.45;;;2.80;;
21657;SDS011;10990;48.174;9.782;2022-11-15T13:32:49;3.97;;;2.40;;
21657;SDS011;10990;48.174;9.782;2022-11-15T13:35:18;3.90;;;2.60;;
21657;SDS011;10990;48.174;9.782;2022-11-15T13:37:48;3.33;;;2.58;;
21657;SDS011;10990;48.174;9.782;2022-11-15T13:40:18;3.72;;;2.63;;
21657;SDS011;10990;48.174;9.782;2022-11-15T13:42:47;5.18;;;2.70;;
21657;SDS011;10990;48.174;9.782;2022-11-15T13:45:15;3.22;;;2.38;;
21657;SDS011;10990;48.174;9.782;2022-11-15T13:47:47;4.28;;;2.80;;
21657;SDS011;10990;48.174;9.782;2022-11-15T13:50:18;6.18;;;3.97;;
21657;SDS011;10990;48.174;9.782;2022-11-15T13:52:48;5.38;;;3.92;;
21657;SDS011;10990;48.174;9.782;2022-11-15T13:55:16;6.25;;;4.75;;
21657;SDS011;10990;48.174;9.782;2022-11-15T13:57:46;6.55;;;4.85;;
21657;SDS011;10990;48.174;9.782;2022-11-15T14:00:24;12.05;;;5.68;;
21657;SDS011;10990;48.174;9.782;2022-11-15T14:02:56;10.82;;;5.88;;
21657;SDS011;10990;48.174;9.782;2022-11-15T14:05:31;7.95;;;5.13;;
21657;SDS011;10990;48.174;9.782;2022-11-15T14:07:59;10.43;;;5.75;;
21657;SDS011;10990;48.174;9.782;2022-11-15T14:10:29;7.68;;;5.43;;
21657;SDS011;10990;48.174;9.782;2022-11-15T14:12:57;7.97;;;5.50;;
21657;SDS011;10990;48.174;9.782;2022-11-15T14:15:26;7.88;;;5.43;;
21657;SDS011;10990;48.174;9.782;2022-11-15T14:17:57;9.50;;;5.65;;
21657;SDS011;10990;48.174;9.782;2022-11-15T14:20:34;7.30;;;4.95;;
21657;SDS011;10990;48.174;9.782;2022-11-15T14:23:03;8.85;;;5.43;;
21657;SDS011;10990;48.174;9.782;2022-11-15T14:25:32;7.20;;;5.20;;
21657;SDS011;10990;48.174;9.782;2022-11-15T14:28:16;7.65;;;4.97;;
21657;SDS011;10990;48.174;9.782;2022-11-15T14:30:56;9.00;;;5.80;;
21657;SDS011;10990;48.174;9.782;2022-11-15T14:33:27;8.95;;;5.57;;
21657;SDS011;10990;48.174;9.782;2022-11-15T14:35:56;9.25;;;5.80;;
21657;SDS011;10990;48.174;9.782;2022-11-15T14:38:24;11.20;;;5.80;;
21657;SDS011;10990;48.174;9.782;2022-11-15T14:40:51;9.93;;;5.63;;
21657;SDS011;10990;48.174;9.782;2022-11-15T14:43:19;10.77;;;5.65;;
21657;SDS011;10990;48.174;9.782;2022-11-15T14:45:45;14.60;;;6.18;;
21657;SDS011;10990;48.174;9.782;2022-11-15T14:48:12;10.90;;;5.43;;
21657;SDS011;10990;48.174;9.782;2022-11-15T14:50:41;11.05;;;6.53;;
21657;SDS011;10990;48.174;9.782;2022-11-15T14:53:10;8.63;;;5.70;;
21657;SDS011;10990;48.174;9.782;2022-11-15T14:55:38;9.02;;;5.57;;
21657;SDS011;10990;48.174;9.782;2022-11-15T14:58:05;10.37;;;6.67;;
21657;SDS011;10990;48.174;9.782;2022-11-15T15:00:34;8.30;;;5.50;;
21657;SDS011;10990;48.174;9.782;2022-11-15T15:03:02;6.65;;;5.28;;
21657;SDS011;10990;48.174;9.782;2022-11-15T15:05:30;7.47;;;4.72;;
21657;SDS011;10990;48.174;9.782;2022-11-15T15:08:00;6.95;;;4.90;;
21657;SDS011;10990;48.174;9.782;2022-11-15T15:10:31;8.43;;;5.00;;
21657;SDS011;10990;48.174;9.782;2022-11-15T15:13:00;9.23;;;5.43;;
21657;SDS011;10990;48.174;9.782;2022-11-15T15:15:31;7.35;;;4.70;;
21657;SDS011;10990;48.174;9.782;2022-11-15T15:17:59;8.35;;;5.05;;
21657;SDS011;10990;48.174;9.782;2022-11-15T15:20:26;8.23;;;5.38;;
21657;SDS011;10990;48.174;9.782;2022-11-15T15:22:53;9.98;;;5.10;;
21657;SDS011;10990;48.174;9.782;2022-11-15T15:25:22;10.27;;;5.32;;
21657;SDS011;10990;48.174;9.782;2022-11-15T15:27:53;11.77;;;5.97;;
21657;SDS011;10990;48.174;9.782;2022-11-15T15:30:20;9.73;;;5.43;;
21657;SDS011;10990;48.174;9.782;2022-11-15T15:32:48;14.07;;;6.33;;
21657;SDS011;10990;48.174;9.782;2022-11-15T15:35:16;12.73;;;6.57;;
21657;SDS011;10990;48.174;9.782;2022-11-15T15:37:44;14.60;;;7.25;;
21657;SDS011;10990;48.174;9.782;2022-11-15T15:40:13;12.88;;;6.32;;
21657;SDS011;10990;48.174;9.782;2022-11-15T15:42:43;10.97;;;5.53;;
21657;SDS011;10990;48.174;9.782;2022-11-15T15:45:10;9.73;;;5.25;;
21657;SDS011;10990;48.174;9.782;2022-11-15T15:47:37;12.82;;;5.60;;
21657;SDS011;10990;48.174;9.782;2022-11-15T15:50:05;11.73;;;5.50;;
21657;SDS011;10990;48.174;9.782;2022-11-15T15:52:44;12.17;;;5.27;;
21657;SDS011;10990;48.174;9.782;2022-11-15T15:55:10;9.13;;;5.75;;
21657;SDS011;10990;48.174;9.782;2022-11-15T15:57:37;10.02;;;5.28;;
21657;SDS011;10990;48.174;9.782;2022-11-15T16:00:06;13.57;;;7.60;;
21657;SDS011;10990;48.174;9.782;2022-11-15T16:02:38;11.80;;;7.20;;
21657;SDS011;10990;48.174;9.782;2022-11-15T16:05:05;11.60;;;6.43;;
21657;SDS011;10990;48.174;9.782;2022-11-15T16:07:32;11.65;;;6.07;;
21657;SDS011;10990;48.174;9.782;2022-11-15T16:09:59;8.30;;;5.30;;
21657;SDS011;10990;48.174;9.782;2022-11-15T16:12:26;9.10;;;5.60;;
21657;SDS011;10990;48.174;9.782;2022-11-15T16:14:53;8.30;;;5.40;;
21657;SDS011;10990;48.174;9.782;2022-11-15T16:17:22;9.83;;;5.23;;
21657;SDS011;10990;48.174;9.782;2022-11-15T16:19:50;8.83;;;5.53;;